Terminal Aerodrome Forecast
Issued by NWS Melbourne, FL

Home | Current Version | Previous Version | Text Only | Print | Product List | Glossary On
Versions: 1 2 3 4 5 6 7 8 9 10 11 12 13
000
FTUS42 KMLB 301700
TAFVRB
TAF
KVRB 301734Z 3018/3118 24005KT P6SM VCTS SCT040CB BKN080
      TEMPO 3018/3019 4SM TSRA BKN040CB
     FM302000 10008KT P6SM VCSH SCT040 SCT060 BKN250
     FM310100 VRB03KT P6SM SCT060 SCT100 SCT250
     FM311400 16006KT P6SM SCT025=

USA.gov is the U.S. government's official web portal to all federal, state and local government web resources and services.